NTL weather

Newcastle Airport
Williamtown, New South Wales, Australia

Public forecast

Using degrees Celsius for public forecast. Weather courtesy of forecast.io.

METAR (pilot weather report)

Retrieved 2019/03/25 20:30 UTC (0 seconds ago):

YWLM 252030Z 27005KT 9999 FEW015 SCT046 BKN069 20/16 Q1014 FM2100 21010KT 9999 FEW020 SCT045 FM2030 MOD TURB BLW 5000FT

TAF (pilot weather forecast)

Retrieved 2019/03/25 18:36 UTC (2 hours ago):

TAF YWLM 251710Z 2518/2618 20010KT 9999 -SHRA SCT020 BKN030 FM260100 17014KT 9999 FEW040 FM260800 14008KT 9999 FEW040